sensor_id;sensor_type;location;lat;lon;timestamp;P1;durP1;ratioP1;P2;durP2;ratioP2
3997;SDS011;61314;53.444;9.902;2022-12-29T00:02:26;7.03;;;6.25;;
3997;SDS011;61314;53.444;9.902;2022-12-29T00:04:53;6.38;;;5.88;;
3997;SDS011;61314;53.444;9.902;2022-12-29T00:07:20;6.35;;;5.95;;
3997;SDS011;61314;53.444;9.902;2022-12-29T00:09:47;6.47;;;5.97;;
3997;SDS011;61314;53.444;9.902;2022-12-29T00:12:14;7.03;;;6.32;;
3997;SDS011;61314;53.444;9.902;2022-12-29T00:14:41;7.55;;;6.43;;
3997;SDS011;61314;53.444;9.902;2022-12-29T00:17:27;6.47;;;5.85;;
3997;SDS011;61314;53.444;9.902;2022-12-29T00:19:54;6.95;;;6.35;;
3997;SDS011;61314;53.444;9.902;2022-12-29T00:22:40;7.40;;;6.80;;
3997;SDS011;61314;53.444;9.902;2022-12-29T00:25:25;6.38;;;5.88;;
3997;SDS011;61314;53.444;9.902;2022-12-29T00:28:11;7.13;;;6.22;;
3997;SDS011;61314;53.444;9.902;2022-12-29T00:30:58;7.93;;;7.35;;
3997;SDS011;61314;53.444;9.902;2022-12-29T00:33:45;7.00;;;6.40;;
3997;SDS011;61314;53.444;9.902;2022-12-29T00:36:37;6.85;;;6.25;;
3997;SDS011;61314;53.444;9.902;2022-12-29T00:39:06;6.53;;;6.03;;
3997;SDS011;61314;53.444;9.902;2022-12-29T00:41:53;9.00;;;7.53;;
3997;SDS011;61314;53.444;9.902;2022-12-29T00:44:58;7.55;;;6.95;;
3997;SDS011;61314;53.444;9.902;2022-12-29T00:47:25;10.52;;;7.00;;
3997;SDS011;61314;53.444;9.902;2022-12-29T00:49:52;16.10;;;6.32;;
3997;SDS011;61314;53.444;9.902;2022-12-29T00:52:19;6.53;;;6.07;;
3997;SDS011;61314;53.444;9.902;2022-12-29T00:54:46;6.93;;;6.22;;
3997;SDS011;61314;53.444;9.902;2022-12-29T00:57:13;6.85;;;6.30;;
3997;SDS011;61314;53.444;9.902;2022-12-29T00:59:41;6.47;;;5.93;;
3997;SDS011;61314;53.444;9.902;2022-12-29T01:02:09;6.70;;;6.10;;
3997;SDS011;61314;53.444;9.902;2022-12-29T01:04:36;6.20;;;5.80;;
3997;SDS011;61314;53.444;9.902;2022-12-29T01:07:03;6.22;;;5.60;;
3997;SDS011;61314;53.444;9.902;2022-12-29T01:09:31;6.22;;;5.82;;
3997;SDS011;61314;53.444;9.902;2022-12-29T01:12:17;7.40;;;6.57;;
3997;SDS011;61314;53.444;9.902;2022-12-29T01:15:04;7.47;;;6.88;;
3997;SDS011;61314;53.444;9.902;2022-12-29T01:17:32;7.53;;;6.93;;
3997;SDS011;61314;53.444;9.902;2022-12-29T01:19:59;6.93;;;6.32;;
3997;SDS011;61314;53.444;9.902;2022-12-29T01:22:26;8.55;;;7.75;;
3997;SDS011;61314;53.444;9.902;2022-12-29T01:24:53;8.27;;;6.00;;
3997;SDS011;61314;53.444;9.902;2022-12-29T01:27:20;9.75;;;6.72;;
3997;SDS011;61314;53.444;9.902;2022-12-29T01:29:47;8.45;;;6.90;;
3997;SDS011;61314;53.444;9.902;2022-12-29T01:32:14;8.48;;;7.60;;
3997;SDS011;61314;53.444;9.902;2022-12-29T01:34:43;11.13;;;7.53;;
3997;SDS011;61314;53.444;9.902;2022-12-29T01:37:10;7.95;;;7.28;;
3997;SDS011;61314;53.444;9.902;2022-12-29T01:39:37;11.27;;;7.47;;
3997;SDS011;61314;53.444;9.902;2022-12-29T01:42:04;7.88;;;7.07;;
3997;SDS011;61314;53.444;9.902;2022-12-29T01:44:47;11.25;;;7.78;;
3997;SDS011;61314;53.444;9.902;2022-12-29T01:47:26;8.30;;;7.60;;
3997;SDS011;61314;53.444;9.902;2022-12-29T01:49:55;9.07;;;8.27;;
3997;SDS011;61314;53.444;9.902;2022-12-29T01:52:35;8.25;;;7.55;;
3997;SDS011;61314;53.444;9.902;2022-12-29T01:55:04;8.38;;;7.68;;
3997;SDS011;61314;53.444;9.902;2022-12-29T01:57:33;11.38;;;7.88;;
3997;SDS011;61314;53.444;9.902;2022-12-29T02:00:03;11.35;;;8.10;;
3997;SDS011;61314;53.444;9.902;2022-12-29T02:02:31;8.25;;;7.55;;
3997;SDS011;61314;53.444;9.902;2022-12-29T02:04:59;11.32;;;7.80;;
3997;SDS011;61314;53.444;9.902;2022-12-29T02:07:30;9.32;;;6.82;;
3997;SDS011;61314;53.444;9.902;2022-12-29T02:09:58;8.80;;;8.05;;
3997;SDS011;61314;53.444;9.902;2022-12-29T02:12:25;8.35;;;7.65;;
3997;SDS011;61314;53.444;9.902;2022-12-29T02:14:55;7.18;;;6.60;;
3997;SDS011;61314;53.444;9.902;2022-12-29T02:20:10;8.48;;;7.60;;
3997;SDS011;61314;53.444;9.902;2022-12-29T02:25:14;7.80;;;7.10;;
3997;SDS011;61314;53.444;9.902;2022-12-29T02:28:08;8.05;;;7.30;;
3997;SDS011;61314;53.444;9.902;2022-12-29T02:30:55;7.10;;;6.57;;
3997;SDS011;61314;53.444;9.902;2022-12-29T02:38:45;6.90;;;6.25;;
3997;SDS011;61314;53.444;9.902;2022-12-29T02:41:20;7.95;;;7.32;;
3997;SDS011;61314;53.444;9.902;2022-12-29T02:46:34;7.53;;;6.93;;
3997;SDS011;61314;53.444;9.902;2022-12-29T02:49:15;12.13;;;6.90;;
3997;SDS011;61314;53.444;9.902;2022-12-29T02:54:13;7.03;;;6.43;;
3997;SDS011;61314;53.444;9.902;2022-12-29T02:57:01;5.60;;;5.20;;
3997;SDS011;61314;53.444;9.902;2022-12-29T02:59:28;6.97;;;6.38;;
3997;SDS011;61314;53.444;9.902;2022-12-29T03:04:51;7.18;;;6.55;;
3997;SDS011;61314;53.444;9.902;2022-12-29T03:07:27;6.93;;;6.43;;
3997;SDS011;61314;53.444;9.902;2022-12-29T03:09:59;7.50;;;6.05;;
3997;SDS011;61314;53.444;9.902;2022-12-29T03:12:34;7.40;;;6.00;;
3997;SDS011;61314;53.444;9.902;2022-12-29T03:15:22;6.55;;;6.00;;
3997;SDS011;61314;53.444;9.902;2022-12-29T03:18:10;7.10;;;5.78;;
3997;SDS011;61314;53.444;9.902;2022-12-29T03:20:46;7.80;;;6.03;;
3997;SDS011;61314;53.444;9.902;2022-12-29T03:23:16;5.80;;;5.40;;
3997;SDS011;61314;53.444;9.902;2022-12-29T03:25:45;5.60;;;5.10;;
3997;SDS011;61314;53.444;9.902;2022-12-29T03:28:16;9.32;;;5.90;;
3997;SDS011;61314;53.444;9.902;2022-12-29T03:30:45;6.53;;;6.00;;
3997;SDS011;61314;53.444;9.902;2022-12-29T03:33:14;6.38;;;5.78;;
3997;SDS011;61314;53.444;9.902;2022-12-29T03:35:44;5.70;;;5.30;;
3997;SDS011;61314;53.444;9.902;2022-12-29T03:40:44;5.82;;;5.43;;
3997;SDS011;61314;53.444;9.902;2022-12-29T03:43:12;5.68;;;5.13;;
3997;SDS011;61314;53.444;9.902;2022-12-29T03:45:40;5.68;;;5.28;;
3997;SDS011;61314;53.444;9.902;2022-12-29T03:48:07;5.65;;;5.30;;
3997;SDS011;61314;53.444;9.902;2022-12-29T03:50:34;8.82;;;5.07;;
3997;SDS011;61314;53.444;9.902;2022-12-29T03:53:01;5.97;;;5.57;;
3997;SDS011;61314;53.444;9.902;2022-12-29T03:55:28;5.25;;;4.85;;
3997;SDS011;61314;53.444;9.902;2022-12-29T03:57:55;5.40;;;4.90;;
3997;SDS011;61314;53.444;9.902;2022-12-29T04:00:22;5.32;;;4.93;;
3997;SDS011;61314;53.444;9.902;2022-12-29T04:02:49;4.93;;;4.60;;
3997;SDS011;61314;53.444;9.902;2022-12-29T04:05:16;4.60;;;4.30;;
3997;SDS011;61314;53.444;9.902;2022-12-29T04:07:43;5.75;;;4.70;;
3997;SDS011;61314;53.444;9.902;2022-12-29T04:10:10;4.10;;;3.80;;
3997;SDS011;61314;53.444;9.902;2022-12-29T04:12:37;4.38;;;3.60;;
3997;SDS011;61314;53.444;9.902;2022-12-29T04:15:04;5.50;;;4.05;;
3997;SDS011;61314;53.444;9.902;2022-12-29T04:17:32;4.70;;;4.30;;
3997;SDS011;61314;53.444;9.902;2022-12-29T04:19:59;4.20;;;3.90;;
3997;SDS011;61314;53.444;9.902;2022-12-29T04:22:45;3.40;;;3.10;;
3997;SDS011;61314;53.444;9.902;2022-12-29T04:25:12;4.38;;;4.07;;
3997;SDS011;61314;53.444;9.902;2022-12-29T04:27:39;3.83;;;3.53;;
3997;SDS011;61314;53.444;9.902;2022-12-29T04:30:06;3.65;;;3.40;;
3997;SDS011;61314;53.444;9.902;2022-12-29T04:32:33;3.67;;;3.40;;
3997;SDS011;61314;53.444;9.902;2022-12-29T04:35:00;3.72;;;3.45;;
3997;SDS011;61314;53.444;9.902;2022-12-29T04:37:27;3.95;;;3.63;;
3997;SDS011;61314;53.444;9.902;2022-12-29T04:39:54;5.75;;;3.17;;
3997;SDS011;61314;53.444;9.902;2022-12-29T04:42:21;3.30;;;3.13;;
3997;SDS011;61314;53.444;9.902;2022-12-29T04:44:48;3.67;;;2.65;;
3997;SDS011;61314;53.444;9.902;2022-12-29T04:47:15;4.78;;;3.50;;
3997;SDS011;61314;53.444;9.902;2022-12-29T04:49:43;3.45;;;3.15;;
3997;SDS011;61314;53.444;9.902;2022-12-29T04:52:10;3.17;;;3.08;;
3997;SDS011;61314;53.444;9.902;2022-12-29T04:54:37;3.45;;;2.70;;
3997;SDS011;61314;53.444;9.902;2022-12-29T04:57:05;3.03;;;2.80;;
3997;SDS011;61314;53.444;9.902;2022-12-29T04:59:32;3.00;;;2.80;;
3997;SDS011;61314;53.444;9.902;2022-12-29T05:01:59;2.90;;;2.70;;
3997;SDS011;61314;53.444;9.902;2022-12-29T05:04:26;3.50;;;3.30;;
3997;SDS011;61314;53.444;9.902;2022-12-29T05:06:53;3.03;;;2.83;;
3997;SDS011;61314;53.444;9.902;2022-12-29T05:09:20;2.95;;;2.85;;
3997;SDS011;61314;53.444;9.902;2022-12-29T05:11:47;3.17;;;3.08;;
3997;SDS011;61314;53.444;9.902;2022-12-29T05:14:14;3.47;;;3.28;;
3997;SDS011;61314;53.444;9.902;2022-12-29T05:16:43;3.50;;;3.30;;
3997;SDS011;61314;53.444;9.902;2022-12-29T05:19:10;4.75;;;4.38;;
3997;SDS011;61314;53.444;9.902;2022-12-29T05:21:37;4.55;;;3.60;;
3997;SDS011;61314;53.444;9.902;2022-12-29T05:24:04;6.68;;;3.65;;
3997;SDS011;61314;53.444;9.902;2022-12-29T05:26:31;3.78;;;3.58;;
3997;SDS011;61314;53.444;9.902;2022-12-29T05:28:58;3.03;;;2.83;;
3997;SDS011;61314;53.444;9.902;2022-12-29T05:31:26;3.67;;;3.47;;
3997;SDS011;61314;53.444;9.902;2022-12-29T05:33:53;2.97;;;2.88;;
3997;SDS011;61314;53.444;9.902;2022-12-29T05:36:20;3.63;;;3.42;;
3997;SDS011;61314;53.444;9.902;2022-12-29T05:38:47;3.85;;;3.40;;
3997;SDS011;61314;53.444;9.902;2022-12-29T05:41:14;2.75;;;2.65;;
3997;SDS011;61314;53.444;9.902;2022-12-29T05:43:41;3.30;;;3.10;;
3997;SDS011;61314;53.444;9.902;2022-12-29T05:46:08;3.17;;;3.08;;
3997;SDS011;61314;53.444;9.902;2022-12-29T05:48:35;3.47;;;3.10;;
3997;SDS011;61314;53.444;9.902;2022-12-29T05:51:03;2.97;;;2.78;;
3997;SDS011;61314;53.444;9.902;2022-12-29T05:53:30;2.92;;;2.72;;
3997;SDS011;61314;53.444;9.902;2022-12-29T05:55:58;2.75;;;2.65;;
3997;SDS011;61314;53.444;9.902;2022-12-29T05:58:25;2.45;;;2.35;;
3997;SDS011;61314;53.444;9.902;2022-12-29T06:00:52;3.03;;;2.80;;
3997;SDS011;61314;53.444;9.902;2022-12-29T06:03:19;4.72;;;3.00;;
3997;SDS011;61314;53.444;9.902;2022-12-29T06:05:47;2.50;;;2.40;;
3997;SDS011;61314;53.444;9.902;2022-12-29T06:08:14;3.22;;;3.03;;
3997;SDS011;61314;53.444;9.902;2022-12-29T06:10:41;3.30;;;3.17;;
3997;SDS011;61314;53.444;9.902;2022-12-29T06:13:08;3.15;;;2.95;;
3997;SDS011;61314;53.444;9.902;2022-12-29T06:15:35;4.00;;;2.88;;
3997;SDS011;61314;53.444;9.902;2022-12-29T06:18:02;2.70;;;2.60;;
3997;SDS011;61314;53.444;9.902;2022-12-29T06:20:29;2.25;;;2.15;;
3997;SDS011;61314;53.444;9.902;2022-12-29T06:22:56;2.45;;;2.35;;
3997;SDS011;61314;53.444;9.902;2022-12-29T06:25:23;2.20;;;2.10;;
3997;SDS011;61314;53.444;9.902;2022-12-29T06:27:50;2.40;;;2.25;;
3997;SDS011;61314;53.444;9.902;2022-12-29T06:30:17;1.88;;;1.77;;
3997;SDS011;61314;53.444;9.902;2022-12-29T06:32:44;2.95;;;1.50;;
3997;SDS011;61314;53.444;9.902;2022-12-29T06:35:11;1.75;;;1.65;;
3997;SDS011;61314;53.444;9.902;2022-12-29T06:37:39;1.30;;;1.20;;
3997;SDS011;61314;53.444;9.902;2022-12-29T06:40:06;1.52;;;1.10;;
3997;SDS011;61314;53.444;9.902;2022-12-29T06:42:33;1.55;;;1.45;;
3997;SDS011;61314;53.444;9.902;2022-12-29T06:45:00;1.13;;;1.02;;
3997;SDS011;61314;53.444;9.902;2022-12-29T06:47:27;1.65;;;1.40;;
3997;SDS011;61314;53.444;9.902;2022-12-29T06:49:54;3.92;;;1.65;;
3997;SDS011;61314;53.444;9.902;2022-12-29T06:52:21;1.60;;;1.50;;
3997;SDS011;61314;53.444;9.902;2022-12-29T06:54:50;2.00;;;1.90;;
3997;SDS011;61314;53.444;9.902;2022-12-29T06:57:17;3.05;;;2.42;;
3997;SDS011;61314;53.444;9.902;2022-12-29T06:59:44;2.75;;;2.55;;
3997;SDS011;61314;53.444;9.902;2022-12-29T07:02:11;2.90;;;2.80;;
3997;SDS011;61314;53.444;9.902;2022-12-29T07:04:40;3.10;;;3.00;;
3997;SDS011;61314;53.444;9.902;2022-12-29T07:07:07;4.22;;;3.42;;
3997;SDS011;61314;53.444;9.902;2022-12-29T07:09:34;3.40;;;3.10;;
3997;SDS011;61314;53.444;9.902;2022-12-29T07:12:01;4.10;;;3.90;;
3997;SDS011;61314;53.444;9.902;2022-12-29T07:14:28;3.70;;;3.38;;
3997;SDS011;61314;53.444;9.902;2022-12-29T07:16:55;3.35;;;3.15;;
3997;SDS011;61314;53.444;9.902;2022-12-29T07:19:22;3.67;;;3.47;;
3997;SDS011;61314;53.444;9.902;2022-12-29T07:21:49;4.30;;;3.92;;
3997;SDS011;61314;53.444;9.902;2022-12-29T07:24:16;3.38;;;3.15;;
3997;SDS011;61314;53.444;9.902;2022-12-29T07:26:43;3.33;;;3.03;;
3997;SDS011;61314;53.444;9.902;2022-12-29T07:29:10;2.85;;;2.35;;
3997;SDS011;61314;53.444;9.902;2022-12-29T07:31:37;4.80;;;2.00;;
3997;SDS011;61314;53.444;9.902;2022-12-29T07:34:04;1.95;;;1.60;;
3997;SDS011;61314;53.444;9.902;2022-12-29T07:36:31;4.10;;;1.52;;
3997;SDS011;61314;53.444;9.902;2022-12-29T07:39:00;1.75;;;1.65;;
3997;SDS011;61314;53.444;9.902;2022-12-29T07:41:27;2.17;;;1.50;;
3997;SDS011;61314;53.444;9.902;2022-12-29T07:43:54;2.85;;;2.00;;
3997;SDS011;61314;53.444;9.902;2022-12-29T07:46:21;1.80;;;1.70;;
3997;SDS011;61314;53.444;9.902;2022-12-29T07:49:08;3.13;;;2.65;;
3997;SDS011;61314;53.444;9.902;2022-12-29T07:51:35;3.40;;;2.08;;
3997;SDS011;61314;53.444;9.902;2022-12-29T07:54:02;2.35;;;2.17;;
3997;SDS011;61314;53.444;9.902;2022-12-29T07:56:29;2.30;;;2.20;;
3997;SDS011;61314;53.444;9.902;2022-12-29T07:58:56;3.45;;;2.85;;
3997;SDS011;61314;53.444;9.902;2022-12-29T08:01:23;5.10;;;3.80;;
3997;SDS011;61314;53.444;9.902;2022-12-29T08:03:50;3.22;;;3.03;;
3997;SDS011;61314;53.444;9.902;2022-12-29T08:06:22;3.15;;;2.95;;
3997;SDS011;61314;53.444;9.902;2022-12-29T08:08:49;5.72;;;2.30;;
3997;SDS011;61314;53.444;9.902;2022-12-29T08:11:16;2.47;;;2.28;;
3997;SDS011;61314;53.444;9.902;2022-12-29T08:13:43;3.47;;;2.60;;
3997;SDS011;61314;53.444;9.902;2022-12-29T08:16:10;5.15;;;2.30;;
3997;SDS011;61314;53.444;9.902;2022-12-29T08:18:37;2.63;;;2.42;;
3997;SDS011;61314;53.444;9.902;2022-12-29T08:21:05;3.85;;;2.45;;
3997;SDS011;61314;53.444;9.902;2022-12-29T08:23:32;2.60;;;2.40;;
3997;SDS011;61314;53.444;9.902;2022-12-29T08:26:00;2.63;;;2.30;;
3997;SDS011;61314;53.444;9.902;2022-12-29T08:28:28;2.83;;;2.10;;
3997;SDS011;61314;53.444;9.902;2022-12-29T08:30:57;3.53;;;2.10;;
3997;SDS011;61314;53.444;9.902;2022-12-29T08:33:24;2.70;;;2.50;;
3997;SDS011;61314;53.444;9.902;2022-12-29T08:35:51;1.70;;;1.60;;
3997;SDS011;61314;53.444;9.902;2022-12-29T08:38:18;8.05;;;2.63;;
3997;SDS011;61314;53.444;9.902;2022-12-29T08:40:45;2.60;;;1.90;;
3997;SDS011;61314;53.444;9.902;2022-12-29T08:43:12;2.30;;;2.10;;
3997;SDS011;61314;53.444;9.902;2022-12-29T08:45:43;1.70;;;1.60;;
3997;SDS011;61314;53.444;9.902;2022-12-29T08:48:10;2.80;;;1.70;;
3997;SDS011;61314;53.444;9.902;2022-12-29T08:50:37;3.67;;;1.90;;
3997;SDS011;61314;53.444;9.902;2022-12-29T08:53:04;3.33;;;1.85;;
3997;SDS011;61314;53.444;9.902;2022-12-29T08:55:31;4.82;;;2.30;;
3997;SDS011;61314;53.444;9.902;2022-12-29T08:57:58;3.08;;;2.72;;
3997;SDS011;61314;53.444;9.902;2022-12-29T09:00:25;3.55;;;1.55;;
3997;SDS011;61314;53.444;9.902;2022-12-29T09:02:52;1.80;;;1.48;;
3997;SDS011;61314;53.444;9.902;2022-12-29T09:05:19;3.17;;;1.55;;
3997;SDS011;61314;53.444;9.902;2022-12-29T09:07:46;3.42;;;1.65;;
3997;SDS011;61314;53.444;9.902;2022-12-29T09:10:13;2.60;;;1.27;;
3997;SDS011;61314;53.444;9.902;2022-12-29T09:12:41;7.80;;;1.92;;
3997;SDS011;61314;53.444;9.902;2022-12-29T09:15:08;4.18;;;2.13;;
3997;SDS011;61314;53.444;9.902;2022-12-29T09:17:35;2.25;;;1.75;;
3997;SDS011;61314;53.444;9.902;2022-12-29T09:20:12;5.60;;;1.50;;
3997;SDS011;61314;53.444;9.902;2022-12-29T09:22:39;4.13;;;1.48;;
3997;SDS011;61314;53.444;9.902;2022-12-29T09:25:06;7.22;;;1.55;;
3997;SDS011;61314;53.444;9.902;2022-12-29T09:27:35;3.83;;;1.60;;
3997;SDS011;61314;53.444;9.902;2022-12-29T09:30:03;1.98;;;1.55;;
3997;SDS011;61314;53.444;9.902;2022-12-29T09:32:32;3.92;;;1.63;;
3997;SDS011;61314;53.444;9.902;2022-12-29T09:35:03;6.30;;;1.90;;
3997;SDS011;61314;53.444;9.902;2022-12-29T09:37:30;5.47;;;1.73;;
3997;SDS011;61314;53.444;9.902;2022-12-29T09:39:57;3.70;;;1.65;;
3997;SDS011;61314;53.444;9.902;2022-12-29T09:42:26;20.55;;;2.17;;
3997;SDS011;61314;53.444;9.902;2022-12-29T09:47:21;6.95;;;1.60;;
3997;SDS011;61314;53.444;9.902;2022-12-29T09:49:51;4.53;;;1.75;;
3997;SDS011;61314;53.444;9.902;2022-12-29T09:52:21;4.50;;;1.25;;
3997;SDS011;61314;53.444;9.902;2022-12-29T09:55:02;2.65;;;1.30;;
3997;SDS011;61314;53.444;9.902;2022-12-29T10:00:14;9.27;;;1.60;;
3997;SDS011;61314;53.444;9.902;2022-12-29T10:02:49;4.88;;;1.50;;
3997;SDS011;61314;53.444;9.902;2022-12-29T10:05:26;6.55;;;1.63;;
3997;SDS011;61314;53.444;9.902;2022-12-29T10:08:07;4.95;;;1.63;;
3997;SDS011;61314;53.444;9.902;2022-12-29T10:10:44;3.13;;;1.30;;
3997;SDS011;61314;53.444;9.902;2022-12-29T10:13:17;6.80;;;2.05;;
3997;SDS011;61314;53.444;9.902;2022-12-29T10:23:52;4.57;;;1.50;;
3997;SDS011;61314;53.444;9.902;2022-12-29T10:26:23;6.55;;;1.92;;
3997;SDS011;61314;53.444;9.902;2022-12-29T10:28:58;3.45;;;1.90;;
3997;SDS011;61314;53.444;9.902;2022-12-29T10:31:33;7.03;;;2.30;;
3997;SDS011;61314;53.444;9.902;2022-12-29T10:34:02;5.75;;;1.60;;
3997;SDS011;61314;53.444;9.902;2022-12-29T10:36:33;4.47;;;1.98;;
3997;SDS011;61314;53.444;9.902;2022-12-29T10:39:03;3.08;;;1.58;;
3997;SDS011;61314;53.444;9.902;2022-12-29T10:41:36;10.98;;;1.90;;
3997;SDS011;61314;53.444;9.902;2022-12-29T10:44:04;9.93;;;2.20;;
3997;SDS011;61314;53.444;9.902;2022-12-29T10:46:34;6.15;;;1.60;;
3997;SDS011;61314;53.444;9.902;2022-12-29T10:49:02;12.07;;;1.75;;
3997;SDS011;61314;53.444;9.902;2022-12-29T10:51:33;5.53;;;1.58;;
3997;SDS011;61314;53.444;9.902;2022-12-29T10:54:22;16.17;;;1.85;;
3997;SDS011;61314;53.444;9.902;2022-12-29T10:56:52;13.70;;;1.92;;
3997;SDS011;61314;53.444;9.902;2022-12-29T10:59:24;8.68;;;1.85;;
3997;SDS011;61314;53.444;9.902;2022-12-29T11:04:28;4.28;;;1.85;;
3997;SDS011;61314;53.444;9.902;2022-12-29T11:07:00;6.05;;;1.40;;
3997;SDS011;61314;53.444;9.902;2022-12-29T11:09:28;4.53;;;1.40;;
3997;SDS011;61314;53.444;9.902;2022-12-29T11:12:27;5.43;;;1.27;;
3997;SDS011;61314;53.444;9.902;2022-12-29T11:15:00;8.43;;;1.70;;
3997;SDS011;61314;53.444;9.902;2022-12-29T11:17:28;10.13;;;1.85;;
3997;SDS011;61314;53.444;9.902;2022-12-29T11:19:55;4.55;;;1.70;;
3997;SDS011;61314;53.444;9.902;2022-12-29T11:22:23;5.47;;;1.10;;
3997;SDS011;61314;53.444;9.902;2022-12-29T11:24:52;1.60;;;1.50;;
3997;SDS011;61314;53.444;9.902;2022-12-29T11:27:23;6.30;;;1.45;;
3997;SDS011;61314;53.444;9.902;2022-12-29T11:29:52;5.93;;;1.30;;
3997;SDS011;61314;53.444;9.902;2022-12-29T11:32:20;4.22;;;1.50;;
3997;SDS011;61314;53.444;9.902;2022-12-29T11:34:53;4.97;;;1.20;;
3997;SDS011;61314;53.444;9.902;2022-12-29T11:42:47;3.33;;;1.33;;
3997;SDS011;61314;53.444;9.902;2022-12-29T11:45:16;4.57;;;1.52;;
3997;SDS011;61314;53.444;9.902;2022-12-29T11:47:44;1.85;;;1.35;;
3997;SDS011;61314;53.444;9.902;2022-12-29T11:50:16;1.92;;;1.05;;
3997;SDS011;61314;53.444;9.902;2022-12-29T11:52:44;2.28;;;1.25;;
3997;SDS011;61314;53.444;9.902;2022-12-29T11:55:19;2.78;;;1.27;;
3997;SDS011;61314;53.444;9.902;2022-12-29T11:57:47;8.88;;;1.40;;
3997;SDS011;61314;53.444;9.902;2022-12-29T12:00:20;1.70;;;1.25;;
3997;SDS011;61314;53.444;9.902;2022-12-29T12:02:53;5.57;;;1.10;;
3997;SDS011;61314;53.444;9.902;2022-12-29T12:08:17;4.43;;;1.40;;
3997;SDS011;61314;53.444;9.902;2022-12-29T12:10:48;7.28;;;1.88;;
3997;SDS011;61314;53.444;9.902;2022-12-29T12:13:18;5.82;;;1.50;;
3997;SDS011;61314;53.444;9.902;2022-12-29T12:15:49;9.60;;;1.92;;
3997;SDS011;61314;53.444;9.902;2022-12-29T12:18:29;7.20;;;1.50;;
3997;SDS011;61314;53.444;9.902;2022-12-29T12:20:59;5.43;;;1.30;;
3997;SDS011;61314;53.444;9.902;2022-12-29T12:23:32;10.20;;;2.40;;
3997;SDS011;61314;53.444;9.902;2022-12-29T12:26:11;7.38;;;1.65;;
3997;SDS011;61314;53.444;9.902;2022-12-29T12:31:16;8.63;;;1.83;;
3997;SDS011;61314;53.444;9.902;2022-12-29T12:33:44;13.35;;;1.90;;
3997;SDS011;61314;53.444;9.902;2022-12-29T12:41:54;11.73;;;1.98;;
3997;SDS011;61314;53.444;9.902;2022-12-29T12:47:04;6.40;;;1.30;;
3997;SDS011;61314;53.444;9.902;2022-12-29T12:49:57;10.35;;;2.15;;
3997;SDS011;61314;53.444;9.902;2022-12-29T12:52:42;5.65;;;1.55;;
3997;SDS011;61314;53.444;9.902;2022-12-29T12:55:30;6.55;;;2.38;;
3997;SDS011;61314;53.444;9.902;2022-12-29T12:58:20;12.55;;;2.70;;
3997;SDS011;61314;53.444;9.902;2022-12-29T13:03:48;4.72;;;1.60;;
3997;SDS011;61314;53.444;9.902;2022-12-29T13:06:35;10.05;;;1.67;;
3997;SDS011;61314;53.444;9.902;2022-12-29T13:09:20;4.47;;;1.35;;
3997;SDS011;61314;53.444;9.902;2022-12-29T13:11:54;3.72;;;2.40;;
3997;SDS011;61314;53.444;9.902;2022-12-29T13:14:42;5.63;;;2.35;;
3997;SDS011;61314;53.444;9.902;2022-12-29T13:20:06;4.78;;;1.10;;
3997;SDS011;61314;53.444;9.902;2022-12-29T13:22:51;7.30;;;1.60;;
3997;SDS011;61314;53.444;9.902;2022-12-29T13:30:38;5.68;;;1.95;;
3997;SDS011;61314;53.444;9.902;2022-12-29T13:33:17;5.80;;;1.70;;
3997;SDS011;61314;53.444;9.902;2022-12-29T13:38:34;6.78;;;1.80;;
3997;SDS011;61314;53.444;9.902;2022-12-29T13:41:08;5.63;;;1.60;;
3997;SDS011;61314;53.444;9.902;2022-12-29T13:43:37;4.90;;;1.45;;
3997;SDS011;61314;53.444;9.902;2022-12-29T13:46:18;6.38;;;1.50;;
3997;SDS011;61314;53.444;9.902;2022-12-29T13:48:53;5.20;;;1.83;;
3997;SDS011;61314;53.444;9.902;2022-12-29T13:51:21;4.75;;;1.20;;
3997;SDS011;61314;53.444;9.902;2022-12-29T13:56:40;5.18;;;1.27;;
3997;SDS011;61314;53.444;9.902;2022-12-29T13:59:14;4.35;;;1.60;;
3997;SDS011;61314;53.444;9.902;2022-12-29T14:01:48;7.80;;;1.83;;
3997;SDS011;61314;53.444;9.902;2022-12-29T14:04:22;13.15;;;2.20;;
3997;SDS011;61314;53.444;9.902;2022-12-29T14:07:03;12.70;;;1.85;;
3997;SDS011;61314;53.444;9.902;2022-12-29T14:09:36;5.35;;;1.55;;
3997;SDS011;61314;53.444;9.902;2022-12-29T14:14:50;10.18;;;1.75;;
3997;SDS011;61314;53.444;9.902;2022-12-29T14:17:19;4.13;;;1.52;;
3997;SDS011;61314;53.444;9.902;2022-12-29T14:19:46;6.43;;;1.85;;
3997;SDS011;61314;53.444;9.902;2022-12-29T14:22:25;6.72;;;1.90;;
3997;SDS011;61314;53.444;9.902;2022-12-29T14:24:58;3.08;;;1.50;;
3997;SDS011;61314;53.444;9.902;2022-12-29T14:29:55;8.15;;;1.80;;
3997;SDS011;61314;53.444;9.902;2022-12-29T14:34:53;5.10;;;1.77;;
3997;SDS011;61314;53.444;9.902;2022-12-29T14:37:25;3.75;;;2.42;;
3997;SDS011;61314;53.444;9.902;2022-12-29T14:42:29;2.80;;;1.23;;
3997;SDS011;61314;53.444;9.902;2022-12-29T14:45:05;5.13;;;1.60;;
3997;SDS011;61314;53.444;9.902;2022-12-29T14:47:37;8.93;;;1.60;;
3997;SDS011;61314;53.444;9.902;2022-12-29T14:50:05;5.93;;;1.30;;
3997;SDS011;61314;53.444;9.902;2022-12-29T14:52:35;9.70;;;2.60;;
3997;SDS011;61314;53.444;9.902;2022-12-29T14:57:37;3.65;;;1.80;;
3997;SDS011;61314;53.444;9.902;2022-12-29T15:02:49;4.40;;;1.63;;
3997;SDS011;61314;53.444;9.902;2022-12-29T15:05:24;3.60;;;2.17;;
3997;SDS011;61314;53.444;9.902;2022-12-29T15:07:53;11.90;;;2.22;;
3997;SDS011;61314;53.444;9.902;2022-12-29T15:10:20;10.55;;;2.20;;
3997;SDS011;61314;53.444;9.902;2022-12-29T15:12:53;12.00;;;3.58;;
3997;SDS011;61314;53.444;9.902;2022-12-29T15:15:27;6.28;;;2.88;;
3997;SDS011;61314;53.444;9.902;2022-12-29T15:17:56;6.85;;;2.80;;
3997;SDS011;61314;53.444;9.902;2022-12-29T15:20:24;10.50;;;3.17;;
3997;SDS011;61314;53.444;9.902;2022-12-29T15:22:54;8.82;;;2.60;;
3997;SDS011;61314;53.444;9.902;2022-12-29T15:25:21;10.27;;;2.28;;
3997;SDS011;61314;53.444;9.902;2022-12-29T15:27:53;8.35;;;1.75;;
3997;SDS011;61314;53.444;9.902;2022-12-29T15:30:20;11.35;;;1.88;;
3997;SDS011;61314;53.444;9.902;2022-12-29T15:32:48;10.98;;;2.55;;
3997;SDS011;61314;53.444;9.902;2022-12-29T15:35:22;8.10;;;2.28;;
3997;SDS011;61314;53.444;9.902;2022-12-29T15:37:50;9.23;;;2.30;;
3997;SDS011;61314;53.444;9.902;2022-12-29T15:40:27;8.65;;;2.20;;
3997;SDS011;61314;53.444;9.902;2022-12-29T15:45:40;5.32;;;1.92;;
3997;SDS011;61314;53.444;9.902;2022-12-29T15:48:10;12.18;;;2.40;;
3997;SDS011;61314;53.444;9.902;2022-12-29T15:50:41;8.93;;;2.30;;
3997;SDS011;61314;53.444;9.902;2022-12-29T15:53:10;6.88;;;2.20;;
3997;SDS011;61314;53.444;9.902;2022-12-29T15:55:38;11.82;;;2.35;;
3997;SDS011;61314;53.444;9.902;2022-12-29T15:58:17;12.75;;;2.67;;
3997;SDS011;61314;53.444;9.902;2022-12-29T16:00:52;5.03;;;2.00;;
3997;SDS011;61314;53.444;9.902;2022-12-29T16:03:20;8.10;;;2.20;;
3997;SDS011;61314;53.444;9.902;2022-12-29T16:05:54;4.93;;;2.30;;
3997;SDS011;61314;53.444;9.902;2022-12-29T16:10:55;4.70;;;2.00;;
3997;SDS011;61314;53.444;9.902;2022-12-29T16:13:34;12.98;;;2.75;;
3997;SDS011;61314;53.444;9.902;2022-12-29T16:16:12;12.88;;;2.70;;
3997;SDS011;61314;53.444;9.902;2022-12-29T16:18:40;11.07;;;2.97;;
3997;SDS011;61314;53.444;9.902;2022-12-29T16:21:14;6.25;;;2.60;;
3997;SDS011;61314;53.444;9.902;2022-12-29T16:23:43;7.32;;;3.10;;
3997;SDS011;61314;53.444;9.902;2022-12-29T16:26:17;13.32;;;4.95;;
3997;SDS011;61314;53.444;9.902;2022-12-29T16:28:46;13.60;;;5.40;;
3997;SDS011;61314;53.444;9.902;2022-12-29T16:31:17;11.68;;;4.57;;
3997;SDS011;61314;53.444;9.902;2022-12-29T16:33:45;5.80;;;3.47;;
3997;SDS011;61314;53.444;9.902;2022-12-29T16:36:30;7.13;;;3.10;;
3997;SDS011;61314;53.444;9.902;2022-12-29T16:41:43;9.40;;;3.95;;
3997;SDS011;61314;53.444;9.902;2022-12-29T16:44:11;5.82;;;2.85;;
3997;SDS011;61314;53.444;9.902;2022-12-29T16:46:42;11.85;;;3.60;;
3997;SDS011;61314;53.444;9.902;2022-12-29T16:49:14;5.85;;;2.50;;
3997;SDS011;61314;53.444;9.902;2022-12-29T16:51:48;12.38;;;4.10;;
3997;SDS011;61314;53.444;9.902;2022-12-29T16:54:20;5.32;;;2.70;;
3997;SDS011;61314;53.444;9.902;2022-12-29T16:56:48;11.57;;;2.90;;
3997;SDS011;61314;53.444;9.902;2022-12-29T17:01:53;13.48;;;4.85;;